AFR673 FMEE-LFPG
Flight info
| Callsign | AFR673 |
|---|---|
| Flight time | N/A |
| Altitude | 32000 |
| Route | UVENA2J UVENA UN304 DENLI/N0505F330 UN304 APKAK/N0502F340 UN304 DWA DCT NIDEG DCT ERDIR UT112 QHA UT445 TEXOK/N0499F350 UM308 KONET UG650 RASKA/N0503F340 T513 EGMEG/N0498F350 T513 JDW/N0502F340 M686 BOMOX/N0496F360 M686 OTEMO T55 KUNKI P751 METRU DCT LATAN/N0480F380 DCT EKMIL DCT VERUN DCT MIVKI DCT AOSTA DCT ORSUD DCT MOLUS DCT UNKIR DCT GIVRI/N0487F360 DCT TINIL |
| Aircraft | B77W/H-SDE1E2E3FGHIJ2J3J4J5M1RWXYZ/LB1D1 |
Departure
| Time | 2026-04-20 05:14 |
|---|---|
| Airport | Roland Garros Airport (FMEE) |
Arrival
| Time | N/A |
|---|---|
| Airport | Charles de Gaulle International Airport (LFPG) |
| Time | Latitude | Longitude | Altitude | Speed | Heading |
|---|---|---|---|---|---|
| 2026-04-20 04:41 | -20.89100 | 55.51299 | 84 ft | 0 kts | 209° |
| 2026-04-20 05:04 | -20.89086 | 55.51307 | 79 ft | 4 kts | 209° |
| 2026-04-20 05:05 | -20.89063 | 55.51321 | 79 ft | 4 kts | 210° |
| 2026-04-20 05:05 | -20.89044 | 55.51334 | 82 ft | 4 kts | 242° |
| 2026-04-20 05:05 | -20.89044 | 55.51357 | 80 ft | 4 kts | 298° |
| 2026-04-20 05:05 | -20.89053 | 55.51374 | 79 ft | 0 kts | 296° |
| 2026-04-20 05:09 | -20.89049 | 55.51365 | 85 ft | 3 kts | 296° |
| 2026-04-20 05:09 | -20.89034 | 55.51334 | 83 ft | 7 kts | 296° |
| 2026-04-20 05:09 | -20.89009 | 55.51280 | 82 ft | 10 kts | 296° |
| 2026-04-20 05:09 | -20.88973 | 55.51208 | 85 ft | 12 kts | 308° |
| 2026-04-20 05:10 | -20.88900 | 55.51173 | 84 ft | 12 kts | 344° |
| 2026-04-20 05:10 | -20.88808 | 55.51140 | 60 ft | 17 kts | 341° |
| 2026-04-20 05:10 | -20.88726 | 55.51060 | 66 ft | 16 kts | 294° |
| 2026-04-20 05:10 | -20.88696 | 55.50942 | 63 ft | 17 kts | 281° |
| 2026-04-20 05:11 | -20.88672 | 55.50813 | 54 ft | 18 kts | 281° |
| 2026-04-20 05:11 | -20.88644 | 55.50682 | 60 ft | 18 kts | 283° |
| 2026-04-20 05:11 | -20.88607 | 55.50554 | 58 ft | 16 kts | 300° |
| 2026-04-20 05:11 | -20.88584 | 55.50502 | 56 ft | 4 kts | 259° |
| 2026-04-20 05:12 | -20.88605 | 55.50492 | 52 ft | 3 kts | 172° |
| 2026-04-20 05:12 | -20.88616 | 55.50508 | 55 ft | 3 kts | 111° |
| 2026-04-20 05:12 | -20.88618 | 55.50529 | 51 ft | 3 kts | 93° |
| 2026-04-20 05:12 | -20.88619 | 55.50550 | 57 ft | 3 kts | 94° |
| 2026-04-20 05:13 | -20.88620 | 55.50557 | 57 ft | 0 kts | 98° |
| 2026-04-20 05:13 | -20.88645 | 55.50679 | 60 ft | 46 kts | 103° |
| 2026-04-20 05:14 | -20.88776 | 55.51331 | 61 ft | 135 kts | 102° |
| 2026-04-20 05:14 | -20.89042 | 55.52619 | 111 ft | 211 kts | 102° |
| 2026-04-20 05:14 | -20.89344 | 55.54189 | 1144 ft | 215 kts | 97° |
| 2026-04-20 05:14 | -20.89104 | 55.55758 | 2329 ft | 224 kts | 65° |
| 2026-04-20 05:15 | -20.88016 | 55.57123 | 2255 ft | 266 kts | 35° |
| 2026-04-20 05:15 | -20.86223 | 55.57645 | 2869 ft | 274 kts | 357° |
| 2026-04-20 05:15 | -20.84372 | 55.57223 | 3679 ft | 273 kts | 350° |
| 2026-04-20 05:15 | -20.82489 | 55.56837 | 4415 ft | 276 kts | 353° |
| 2026-04-20 05:16 | -20.80617 | 55.56487 | 5203 ft | 278 kts | 352° |
| 2026-04-20 05:16 | -20.78703 | 55.56117 | 5976 ft | 281 kts | 352° |
| 2026-04-20 05:16 | -20.76798 | 55.55620 | 6663 ft | 285 kts | 342° |
| 2026-04-20 05:16 | -20.74945 | 55.54828 | 7334 ft | 290 kts | 339° |
| 2026-04-20 05:17 | -20.73087 | 55.53960 | 8015 ft | 293 kts | 338° |
| 2026-04-20 05:17 | -20.71208 | 55.53091 | 8684 ft | 296 kts | 339° |
| 2026-04-20 05:17 | -20.69304 | 55.52230 | 9348 ft | 299 kts | 339° |
| 2026-04-20 05:17 | -20.67375 | 55.51377 | 9989 ft | 301 kts | 340° |
| 2026-04-20 05:18 | -20.65427 | 55.50527 | 10630 ft | 303 kts | 339° |
| 2026-04-20 05:18 | -20.63450 | 55.49666 | 11126 ft | 314 kts | 339° |
| 2026-04-20 05:18 | -20.61381 | 55.48768 | 11272 ft | 336 kts | 339° |
| 2026-04-20 05:18 | -20.59151 | 55.47799 | 11451 ft | 357 kts | 339° |
| 2026-04-20 05:19 | -20.56783 | 55.46769 | 11616 ft | 377 kts | 339° |
| 2026-04-20 05:19 | -20.54292 | 55.45682 | 11859 ft | 395 kts | 339° |
| 2026-04-20 05:19 | -20.51717 | 55.44558 | 12335 ft | 405 kts | 339° |
| 2026-04-20 05:19 | -20.49085 | 55.43408 | 12890 ft | 412 kts | 339° |
| 2026-04-20 05:20 | -20.46420 | 55.42245 | 13541 ft | 416 kts | 338° |
| 2026-04-20 05:20 | -20.43737 | 55.41072 | 14195 ft | 419 kts | 338° |
| 2026-04-20 05:20 | -20.41060 | 55.39903 | 14769 ft | 424 kts | 338° |
| 2026-04-20 05:20 | -20.38316 | 55.38703 | 15352 ft | 428 kts | 338° |
| 2026-04-20 05:21 | -20.35545 | 55.37494 | 15905 ft | 433 kts | 338° |
| 2026-04-20 05:21 | -20.32743 | 55.36272 | 16483 ft | 437 kts | 338° |
| 2026-04-20 05:21 | -20.29917 | 55.35039 | 17065 ft | 441 kts | 338° |
| 2026-04-20 05:21 | -20.27071 | 55.33799 | 17615 ft | 444 kts | 338° |
| 2026-04-20 05:22 | -20.24193 | 55.32548 | 18126 ft | 449 kts | 338° |
| 2026-04-20 05:22 | -20.21293 | 55.31286 | 18631 ft | 453 kts | 337° |
| 2026-04-20 05:22 | -20.18365 | 55.30012 | 19148 ft | 456 kts | 337° |
| 2026-04-20 05:22 | -20.15455 | 55.28748 | 19634 ft | 460 kts | 337° |
| 2026-04-20 05:23 | -20.12481 | 55.27454 | 20095 ft | 463 kts | 337° |
| 2026-04-20 05:23 | -20.09485 | 55.26152 | 20583 ft | 467 kts | 337° |
| 2026-04-20 05:23 | -20.06472 | 55.24842 | 21021 ft | 470 kts | 337° |
| 2026-04-20 05:23 | -20.03428 | 55.23520 | 21428 ft | 474 kts | 337° |
| 2026-04-20 05:24 | -20.00366 | 55.22193 | 21848 ft | 477 kts | 337° |
| 2026-04-20 05:24 | -19.97293 | 55.20860 | 22248 ft | 481 kts | 337° |
| 2026-04-20 05:24 | -19.94189 | 55.19515 | 22706 ft | 482 kts | 337° |
| 2026-04-20 05:24 | -19.91077 | 55.18166 | 23099 ft | 485 kts | 337° |
| 2026-04-20 05:25 | -19.87980 | 55.16825 | 23414 ft | 489 kts | 337° |
| 2026-04-20 05:25 | -19.84817 | 55.15455 | 23746 ft | 493 kts | 337° |
| 2026-04-20 05:25 | -19.81628 | 55.14075 | 24083 ft | 496 kts | 337° |
| 2026-04-20 05:25 | -19.78427 | 55.12689 | 24406 ft | 499 kts | 337° |
| 2026-04-20 05:26 | -19.75207 | 55.11297 | 24715 ft | 501 kts | 337° |
| 2026-04-20 05:26 | -19.71960 | 55.09894 | 24975 ft | 505 kts | 337° |
| 2026-04-20 05:26 | -19.68694 | 55.08482 | 25227 ft | 509 kts | 337° |
| 2026-04-20 05:26 | -19.65455 | 55.07082 | 25501 ft | 511 kts | 337° |
| 2026-04-20 05:27 | -19.62154 | 55.05657 | 25769 ft | 513 kts | 337° |
| 2026-04-20 05:27 | -19.58838 | 55.04227 | 26001 ft | 516 kts | 337° |
| 2026-04-20 05:27 | -19.55509 | 55.02782 | 26217 ft | 519 kts | 336° |
| 2026-04-20 05:27 | -19.52255 | 55.01111 | 26405 ft | 521 kts | 329° |
| 2026-04-20 05:28 | -19.49294 | 54.99179 | 26619 ft | 523 kts | 326° |
| 2026-04-20 05:28 | -19.46231 | 54.97085 | 26802 ft | 525 kts | 326° |
| 2026-04-20 05:28 | -19.43156 | 54.94974 | 26996 ft | 527 kts | 326° |
| 2026-04-20 05:28 | -19.40067 | 54.92866 | 27258 ft | 528 kts | 326° |
| 2026-04-20 05:29 | -19.36978 | 54.90775 | 27580 ft | 527 kts | 327° |
| 2026-04-20 05:29 | -19.33884 | 54.88696 | 27902 ft | 527 kts | 327° |
| 2026-04-20 05:29 | -19.30825 | 54.86649 | 28187 ft | 527 kts | 327° |
| 2026-04-20 05:29 | -19.27727 | 54.84582 | 28476 ft | 527 kts | 327° |
| 2026-04-20 05:30 | -19.24626 | 54.82516 | 28786 ft | 526 kts | 327° |
| 2026-04-20 05:30 | -19.21530 | 54.80454 | 29110 ft | 526 kts | 327° |
| 2026-04-20 05:30 | -19.18434 | 54.78394 | 29409 ft | 526 kts | 327° |
| 2026-04-20 05:30 | -19.15336 | 54.76330 | 29712 ft | 526 kts | 326° |
| 2026-04-20 05:31 | -19.12238 | 54.74266 | 30034 ft | 526 kts | 326° |
| 2026-04-20 05:31 | -19.09140 | 54.72204 | 30346 ft | 526 kts | 326° |
| 2026-04-20 05:31 | -19.06051 | 54.70148 | 30680 ft | 525 kts | 326° |
| 2026-04-20 05:31 | -19.03007 | 54.68123 | 31052 ft | 523 kts | 326° |
| 2026-04-20 05:32 | -18.99946 | 54.66088 | 31407 ft | 521 kts | 326° |
| 2026-04-20 05:32 | -18.96884 | 54.64055 | 31698 ft | 520 kts | 326° |
| 2026-04-20 05:32 | -18.93819 | 54.62018 | 31959 ft | 521 kts | 326° |
| 2026-04-20 05:33 | -18.87657 | 54.57926 | 32071 ft | 524 kts | 326° |
| 2026-04-20 05:33 | -18.81493 | 54.53836 | 32090 ft | 523 kts | 326° |
| 2026-04-20 05:34 | -18.75362 | 54.49771 | 32095 ft | 524 kts | 326° |
| 2026-04-20 05:34 | -18.66108 | 54.43645 | 32092 ft | 524 kts | 326° |
| 2026-04-20 05:35 | -18.59887 | 54.39640 | 32088 ft | 525 kts | 330° |
| 2026-04-20 05:35 | -18.53298 | 54.36421 | 32096 ft | 526 kts | 335° |
| 2026-04-20 05:36 | -18.46600 | 54.33320 | 32092 ft | 527 kts | 335° |
| 2026-04-20 05:36 | -18.39904 | 54.30176 | 32094 ft | 527 kts | 335° |
| 2026-04-20 05:37 | -18.33215 | 54.26997 | 32089 ft | 528 kts | 334° |
| 2026-04-20 05:37 | -18.26524 | 54.23823 | 32095 ft | 528 kts | 335° |
| 2026-04-20 05:38 | -18.19864 | 54.20665 | 32090 ft | 529 kts | 335° |
| 2026-04-20 05:38 | -18.13153 | 54.17486 | 32090 ft | 530 kts | 335° |
| 2026-04-20 05:39 | -18.06423 | 54.14303 | 32067 ft | 531 kts | 335° |
| 2026-04-20 05:39 | -17.99707 | 54.11120 | 32058 ft | 531 kts | 335° |
| 2026-04-20 05:40 | -17.93009 | 54.07943 | 32058 ft | 532 kts | 334° |
| 2026-04-20 05:40 | -17.86273 | 54.04748 | 32051 ft | 532 kts | 334° |
| 2026-04-20 05:41 | -17.79534 | 54.01558 | 32058 ft | 531 kts | 335° |
| 2026-04-20 05:41 | -17.72908 | 53.98426 | 32054 ft | 530 kts | 335° |
| 2026-04-20 05:42 | -17.66188 | 53.95250 | 32055 ft | 529 kts | 334° |
| 2026-04-20 05:42 | -17.59522 | 53.92103 | 32058 ft | 528 kts | 334° |
| 2026-04-20 05:43 | -17.52822 | 53.88940 | 32048 ft | 528 kts | 334° |
| 2026-04-20 05:43 | -17.46133 | 53.85787 | 32045 ft | 528 kts | 334° |
| 2026-04-20 05:44 | -17.39441 | 53.82638 | 32050 ft | 527 kts | 334° |
| 2026-04-20 05:44 | -17.32801 | 53.79512 | 32046 ft | 526 kts | 334° |
| 2026-04-20 05:45 | -17.26135 | 53.76376 | 32047 ft | 524 kts | 334° |
| 2026-04-20 05:45 | -17.19487 | 53.73252 | 32047 ft | 523 kts | 334° |
| 2026-04-20 05:46 | -17.12864 | 53.70144 | 32048 ft | 521 kts | 334° |
| 2026-04-20 05:46 | -17.06256 | 53.67046 | 32045 ft | 520 kts | 334° |
| 2026-04-20 05:47 | -16.99728 | 53.63985 | 32046 ft | 518 kts | 334° |
| 2026-04-20 05:47 | -16.93162 | 53.60906 | 32045 ft | 516 kts | 334° |
| 2026-04-20 05:48 | -16.86613 | 53.57841 | 32047 ft | 515 kts | 334° |
| 2026-04-20 05:48 | -16.80081 | 53.54787 | 32045 ft | 514 kts | 334° |
| 2026-04-20 05:49 | -16.73574 | 53.51744 | 32036 ft | 512 kts | 334° |
| 2026-04-20 05:49 | -16.67116 | 53.48729 | 32036 ft | 511 kts | 334° |
| 2026-04-20 05:50 | -16.60629 | 53.45701 | 32037 ft | 510 kts | 334° |
| 2026-04-20 05:50 | -16.54150 | 53.42680 | 32037 ft | 510 kts | 334° |
| 2026-04-20 05:51 | -16.47681 | 53.39665 | 32036 ft | 509 kts | 334° |
| 2026-04-20 05:51 | -16.41265 | 53.36676 | 32037 ft | 508 kts | 334° |
| 2026-04-20 05:52 | -16.34806 | 53.33670 | 32038 ft | 508 kts | 333° |
| 2026-04-20 05:52 | -16.28351 | 53.30666 | 32036 ft | 508 kts | 334° |
| 2026-04-20 05:53 | -16.21894 | 53.27662 | 32037 ft | 508 kts | 334° |
| 2026-04-20 05:53 | -16.15435 | 53.24657 | 32035 ft | 509 kts | 334° |
| 2026-04-20 05:54 | -16.09019 | 53.21676 | 32028 ft | 509 kts | 334° |
| 2026-04-20 05:54 | -16.02541 | 53.18671 | 32028 ft | 510 kts | 334° |
| 2026-04-20 05:55 | -15.96097 | 53.15682 | 32030 ft | 511 kts | 333° |
| 2026-04-20 05:55 | -15.89614 | 53.12677 | 32028 ft | 510 kts | 333° |
| 2026-04-20 05:56 | -15.83146 | 53.09680 | 32022 ft | 508 kts | 333° |
| 2026-04-20 05:56 | -15.76743 | 53.06716 | 32025 ft | 507 kts | 333° |
| 2026-04-20 05:57 | -15.70293 | 53.03730 | 32028 ft | 507 kts | 333° |
| 2026-04-20 05:57 | -15.63840 | 53.00746 | 32029 ft | 508 kts | 334° |
| 2026-04-20 05:58 | -15.57513 | 52.97824 | 32020 ft | 509 kts | 334° |
| 2026-04-20 05:58 | -15.51029 | 52.94831 | 32019 ft | 510 kts | 334° |
| 2026-04-20 05:59 | -15.44537 | 52.91835 | 32022 ft | 512 kts | 334° |
| 2026-04-20 05:59 | -15.38029 | 52.88834 | 32018 ft | 512 kts | 334° |
| 2026-04-20 06:00 | -15.31511 | 52.85830 | 32020 ft | 513 kts | 334° |
| 2026-04-20 06:00 | -15.25037 | 52.82851 | 32018 ft | 513 kts | 334° |
| 2026-04-20 06:01 | -15.18516 | 52.79850 | 32020 ft | 513 kts | 334° |
| 2026-04-20 06:01 | -15.11999 | 52.76852 | 32007 ft | 512 kts | 334° |
| 2026-04-20 06:02 | -15.05487 | 52.73861 | 32009 ft | 512 kts | 334° |
| 2026-04-20 06:02 | -14.99000 | 52.70882 | 32008 ft | 511 kts | 333° |
| 2026-04-20 06:03 | -14.92551 | 52.67923 | 32010 ft | 510 kts | 334° |
| 2026-04-20 06:03 | -14.86061 | 52.64949 | 32002 ft | 511 kts | 334° |
| 2026-04-20 06:04 | -14.79559 | 52.61968 | 32014 ft | 512 kts | 334° |
| 2026-04-20 06:04 | -14.73038 | 52.58981 | 32009 ft | 513 kts | 334° |
| 2026-04-20 06:05 | -14.66541 | 52.56006 | 32001 ft | 515 kts | 334° |
| 2026-04-20 06:05 | -14.59983 | 52.53006 | 32001 ft | 516 kts | 334° |
| 2026-04-20 06:06 | -14.53428 | 52.50012 | 31994 ft | 516 kts | 334° |
| 2026-04-20 06:06 | -14.46869 | 52.47015 | 32002 ft | 515 kts | 334° |
| 2026-04-20 06:07 | -14.40311 | 52.44020 | 31998 ft | 515 kts | 334° |
| 2026-04-20 06:07 | -14.33794 | 52.41046 | 31999 ft | 516 kts | 334° |
| 2026-04-20 06:08 | -14.27227 | 52.38055 | 31989 ft | 516 kts | 334° |
| 2026-04-20 06:08 | -14.20663 | 52.35064 | 31989 ft | 516 kts | 334° |
| 2026-04-20 06:09 | -14.14087 | 52.32073 | 31988 ft | 517 kts | 334° |
| 2026-04-20 06:09 | -14.07509 | 52.29078 | 31990 ft | 517 kts | 334° |
| 2026-04-20 06:10 | -14.00969 | 52.26102 | 31997 ft | 517 kts | 334° |
| 2026-04-20 06:10 | -13.94390 | 52.23114 | 31989 ft | 517 kts | 334° |
| 2026-04-20 06:11 | -13.87804 | 52.20122 | 31980 ft | 517 kts | 334° |
| 2026-04-20 06:11 | -13.81216 | 52.17132 | 31982 ft | 517 kts | 334° |
| 2026-04-20 06:12 | -13.74674 | 52.14164 | 31984 ft | 517 kts | 334° |
| 2026-04-20 06:12 | -13.68101 | 52.11185 | 31978 ft | 516 kts | 334° |
| 2026-04-20 06:13 | -13.61524 | 52.08204 | 31983 ft | 516 kts | 334° |
| 2026-04-20 06:13 | -13.54954 | 52.05229 | 31980 ft | 515 kts | 334° |
| 2026-04-20 06:14 | -13.48395 | 52.02261 | 31974 ft | 515 kts | 334° |
| 2026-04-20 06:14 | -13.42001 | 51.99369 | 31973 ft | 513 kts | 334° |
| 2026-04-20 06:15 | -13.35466 | 51.96417 | 31965 ft | 513 kts | 334° |
| 2026-04-20 06:15 | -13.28933 | 51.93470 | 31972 ft | 513 kts | 334° |
| 2026-04-20 06:16 | -13.22400 | 51.90524 | 31966 ft | 512 kts | 334° |
| 2026-04-20 06:16 | -13.15915 | 51.87599 | 31962 ft | 512 kts | 334° |
| 2026-04-20 06:17 | -13.09391 | 51.84660 | 31964 ft | 512 kts | 334° |
| 2026-04-20 06:17 | -13.02876 | 51.81724 | 31962 ft | 511 kts | 334° |
| 2026-04-20 06:18 | -12.96383 | 51.78802 | 31963 ft | 510 kts | 334° |
| 2026-04-20 06:18 | -12.89936 | 51.75900 | 31963 ft | 509 kts | 334° |
| 2026-04-20 06:19 | -12.83463 | 51.72989 | 31962 ft | 507 kts | 333° |
| 2026-04-20 06:19 | -12.77011 | 51.70089 | 31962 ft | 506 kts | 333° |
| 2026-04-20 06:20 | -12.70585 | 51.67203 | 31962 ft | 504 kts | 333° |
| 2026-04-20 06:20 | -12.64207 | 51.64340 | 31965 ft | 503 kts | 333° |
| 2026-04-20 06:21 | -12.57793 | 51.61462 | 31966 ft | 503 kts | 333° |
| 2026-04-20 06:21 | -12.51388 | 51.58590 | 31963 ft | 502 kts | 333° |
| 2026-04-20 06:22 | -12.44989 | 51.55720 | 31966 ft | 502 kts | 333° |
| 2026-04-20 06:22 | -12.38597 | 51.52856 | 31955 ft | 502 kts | 333° |
| 2026-04-20 06:23 | -12.32245 | 51.50014 | 31952 ft | 501 kts | 333° |
| 2026-04-20 06:23 | -12.25857 | 51.47153 | 31950 ft | 501 kts | 333° |
| 2026-04-20 06:24 | -12.19470 | 51.44295 | 31944 ft | 501 kts | 333° |
| 2026-04-20 06:24 | -12.13082 | 51.41441 | 31947 ft | 501 kts | 333° |
| 2026-04-20 06:25 | -12.06744 | 51.38611 | 31946 ft | 501 kts | 333° |
| 2026-04-20 06:25 | -12.00351 | 51.35759 | 31945 ft | 501 kts | 333° |
| 2026-04-20 06:26 | -11.93967 | 51.32908 | 31949 ft | 501 kts | 333° |
| 2026-04-20 06:26 | -11.87580 | 51.30059 | 31941 ft | 501 kts | 333° |
| 2026-04-20 06:27 | -11.81241 | 51.27235 | 31931 ft | 500 kts | 333° |
| 2026-04-20 06:27 | -11.74864 | 51.24394 | 31945 ft | 500 kts | 333° |
| 2026-04-20 06:28 | -11.68500 | 51.21558 | 31949 ft | 500 kts | 333° |
| 2026-04-20 06:28 | -11.62126 | 51.18720 | 31946 ft | 500 kts | 333° |
| 2026-04-20 06:29 | -11.55746 | 51.15881 | 31946 ft | 500 kts | 333° |
| 2026-04-20 06:29 | -11.49403 | 51.13060 | 31948 ft | 501 kts | 333° |
| 2026-04-20 06:30 | -11.43013 | 51.10220 | 31948 ft | 501 kts | 333° |
| 2026-04-20 06:30 | -11.36618 | 51.07380 | 31943 ft | 501 kts | 333° |
| 2026-04-20 06:31 | -11.30226 | 51.04542 | 31945 ft | 502 kts | 333° |
| 2026-04-20 06:31 | -11.23869 | 51.01723 | 31945 ft | 502 kts | 333° |
| 2026-04-20 06:32 | -11.17568 | 50.98926 | 31946 ft | 502 kts | 333° |
| 2026-04-20 06:32 | -11.11166 | 50.96085 | 31946 ft | 502 kts | 333° |
| 2026-04-20 06:33 | -11.04765 | 50.93248 | 31947 ft | 501 kts | 333° |
| 2026-04-20 06:33 | -10.98413 | 50.90434 | 31940 ft | 502 kts | 333° |
| 2026-04-20 06:34 | -10.92021 | 50.87605 | 31947 ft | 501 kts | 333° |
| 2026-04-20 06:35 | -10.82426 | 50.83362 | 31950 ft | 501 kts | 333° |
| 2026-04-20 06:35 | -10.76033 | 50.80532 | 31946 ft | 501 kts | 333° |
| 2026-04-20 06:36 | -10.69679 | 50.77723 | 31949 ft | 501 kts | 334° |
| 2026-04-20 06:36 | -10.63282 | 50.74896 | 31950 ft | 501 kts | 334° |
| 2026-04-20 06:37 | -10.56890 | 50.72072 | 31940 ft | 501 kts | 334° |
| 2026-04-20 06:37 | -10.50488 | 50.69247 | 31950 ft | 502 kts | 333° |
| 2026-04-20 06:38 | -10.44085 | 50.66421 | 31950 ft | 502 kts | 333° |
| 2026-04-20 06:38 | -10.37723 | 50.63616 | 31930 ft | 502 kts | 334° |
| 2026-04-20 06:39 | -10.31315 | 50.60791 | 31950 ft | 502 kts | 334° |
| 2026-04-20 06:39 | -10.24902 | 50.57966 | 31946 ft | 502 kts | 334° |
| 2026-04-20 06:40 | -10.18527 | 50.55157 | 31945 ft | 503 kts | 333° |
| 2026-04-20 06:40 | -10.12115 | 50.52331 | 31940 ft | 503 kts | 333° |
| 2026-04-20 06:41 | -10.05694 | 50.49505 | 31932 ft | 503 kts | 333° |
| 2026-04-20 06:41 | -9.99277 | 50.46684 | 31943 ft | 503 kts | 333° |
| 2026-04-20 06:42 | -9.92850 | 50.43859 | 31930 ft | 503 kts | 333° |
| 2026-04-20 06:42 | -9.86463 | 50.41052 | 31946 ft | 503 kts | 333° |
| 2026-04-20 06:43 | -9.80042 | 50.38230 | 31935 ft | 503 kts | 333° |
| 2026-04-20 06:43 | -9.73609 | 50.35404 | 31938 ft | 503 kts | 333° |
| 2026-04-20 06:44 | -9.67186 | 50.32584 | 31930 ft | 503 kts | 333° |
| 2026-04-20 06:44 | -9.60776 | 50.29770 | 31942 ft | 502 kts | 333° |
| 2026-04-20 06:45 | -9.54407 | 50.26975 | 31937 ft | 502 kts | 333° |
| 2026-04-20 06:45 | -9.47997 | 50.24164 | 31933 ft | 502 kts | 333° |
| 2026-04-20 06:46 | -9.41589 | 50.21357 | 31933 ft | 502 kts | 334° |
| 2026-04-20 06:46 | -9.35189 | 50.18551 | 31932 ft | 502 kts | 334° |
| 2026-04-20 06:47 | -9.28829 | 50.15763 | 31935 ft | 501 kts | 334° |
| 2026-04-20 06:47 | -9.22429 | 50.12963 | 31927 ft | 501 kts | 334° |
| 2026-04-20 06:48 | -9.16035 | 50.10165 | 31944 ft | 500 kts | 334° |
| 2026-04-20 06:48 | -9.09647 | 50.07370 | 31927 ft | 500 kts | 334° |
| 2026-04-20 06:49 | -9.03266 | 50.04579 | 31935 ft | 499 kts | 334° |
| 2026-04-20 06:49 | -8.96942 | 50.01812 | 31942 ft | 499 kts | 334° |
| 2026-04-20 06:50 | -8.90678 | 49.99076 | 31933 ft | 498 kts | 334° |
| 2026-04-20 06:50 | -8.84304 | 49.96292 | 31927 ft | 499 kts | 334° |
| 2026-04-20 06:51 | -8.77919 | 49.93503 | 31935 ft | 500 kts | 334° |
| 2026-04-20 06:51 | -8.71568 | 49.90735 | 31946 ft | 500 kts | 334° |
| 2026-04-20 06:52 | -8.65178 | 49.87941 | 31927 ft | 500 kts | 334° |
| 2026-04-20 06:52 | -8.58786 | 49.85152 | 31929 ft | 501 kts | 334° |
| 2026-04-20 06:53 | -8.52394 | 49.82368 | 31931 ft | 500 kts | 334° |
| 2026-04-20 06:53 | -8.46013 | 49.79588 | 31930 ft | 499 kts | 334° |
| 2026-04-20 06:54 | -8.39680 | 49.76828 | 31932 ft | 499 kts | 334° |
| 2026-04-20 06:54 | -8.33310 | 49.74053 | 31932 ft | 498 kts | 334° |
| 2026-04-20 06:55 | -8.26946 | 49.71284 | 31927 ft | 497 kts | 334° |
| 2026-04-20 06:55 | -8.20594 | 49.68519 | 31932 ft | 497 kts | 334° |
| 2026-04-20 06:56 | -8.14286 | 49.65772 | 31941 ft | 497 kts | 334° |
| 2026-04-20 06:56 | -8.07935 | 49.63012 | 31930 ft | 498 kts | 334° |
| 2026-04-20 06:57 | -8.01567 | 49.60244 | 31933 ft | 498 kts | 334° |
| 2026-04-20 06:57 | -7.95219 | 49.57483 | 31939 ft | 498 kts | 334° |
| 2026-04-20 06:58 | -7.88859 | 49.54719 | 31937 ft | 497 kts | 334° |
| 2026-04-20 06:58 | -7.82546 | 49.51978 | 31938 ft | 497 kts | 334° |
| 2026-04-20 06:59 | -7.76180 | 49.49214 | 31927 ft | 498 kts | 334° |
| 2026-04-20 06:59 | -7.69822 | 49.46453 | 31920 ft | 498 kts | 334° |
| 2026-04-20 07:00 | -7.63452 | 49.43688 | 31927 ft | 498 kts | 334° |
| 2026-04-20 07:00 | -7.57133 | 49.40947 | 31929 ft | 498 kts | 334° |
| 2026-04-20 07:01 | -7.50762 | 49.38187 | 31932 ft | 498 kts | 334° |
| 2026-04-20 07:01 | -7.44388 | 49.35423 | 31929 ft | 499 kts | 334° |
| 2026-04-20 07:02 | -7.38008 | 49.32656 | 31929 ft | 499 kts | 334° |
| 2026-04-20 07:02 | -7.31672 | 49.29912 | 31929 ft | 499 kts | 335° |
| 2026-04-20 07:03 | -7.25278 | 49.27143 | 31930 ft | 500 kts | 335° |
| 2026-04-20 07:03 | -7.18890 | 49.24376 | 31933 ft | 500 kts | 335° |
| 2026-04-20 07:04 | -7.12496 | 49.21608 | 31933 ft | 500 kts | 335° |
| 2026-04-20 07:04 | -7.06102 | 49.18842 | 31942 ft | 501 kts | 335° |
| 2026-04-20 07:05 | -6.99752 | 49.16093 | 31943 ft | 500 kts | 335° |
| 2026-04-20 07:05 | -6.93360 | 49.13329 | 31927 ft | 500 kts | 335° |
| 2026-04-20 07:06 | -6.86966 | 49.10564 | 31927 ft | 500 kts | 335° |
| 2026-04-20 07:06 | -6.80572 | 49.07800 | 31935 ft | 500 kts | 335° |
| 2026-04-20 07:07 | -6.74222 | 49.05054 | 31929 ft | 500 kts | 335° |
| 2026-04-20 07:07 | -6.67839 | 49.02293 | 31933 ft | 500 kts | 335° |
| 2026-04-20 07:08 | -6.61551 | 48.99574 | 31947 ft | 500 kts | 335° |
| 2026-04-20 07:08 | -6.55148 | 48.96808 | 31931 ft | 501 kts | 335° |
| 2026-04-20 07:09 | -6.48796 | 48.94064 | 31925 ft | 501 kts | 335° |
| 2026-04-20 07:09 | -6.42394 | 48.91299 | 31946 ft | 501 kts | 335° |
| 2026-04-20 07:10 | -6.35992 | 48.88533 | 31935 ft | 501 kts | 335° |
| 2026-04-20 07:10 | -6.29588 | 48.85772 | 31927 ft | 500 kts | 335° |
| 2026-04-20 07:11 | -6.23235 | 48.83031 | 31928 ft | 500 kts | 335° |
| 2026-04-20 07:11 | -6.16841 | 48.80272 | 31927 ft | 500 kts | 335° |
| 2026-04-20 07:12 | -6.10443 | 48.77513 | 31941 ft | 500 kts | 335° |
| 2026-04-20 07:12 | -6.04042 | 48.74753 | 31930 ft | 501 kts | 335° |
| 2026-04-20 07:13 | -5.97687 | 48.72014 | 31932 ft | 501 kts | 335° |
| 2026-04-20 07:13 | -5.91284 | 48.69255 | 31937 ft | 501 kts | 335° |
| 2026-04-20 07:14 | -5.84889 | 48.66499 | 31927 ft | 501 kts | 335° |
| 2026-04-20 07:14 | -5.78489 | 48.63740 | 31942 ft | 500 kts | 335° |
| 2026-04-20 07:15 | -5.72131 | 48.61004 | 31945 ft | 500 kts | 335° |
| 2026-04-20 07:15 | -5.65730 | 48.58249 | 31928 ft | 500 kts | 335° |
| 2026-04-20 07:16 | -5.59335 | 48.55497 | 31934 ft | 500 kts | 335° |
| 2026-04-20 07:16 | -5.52941 | 48.52745 | 31942 ft | 500 kts | 335° |
| 2026-04-20 07:17 | -5.46597 | 48.50015 | 31938 ft | 500 kts | 335° |
| 2026-04-20 07:17 | -5.40208 | 48.47268 | 31938 ft | 499 kts | 335° |
| 2026-04-20 07:18 | -5.33827 | 48.44525 | 31928 ft | 499 kts | 335° |
| 2026-04-20 07:18 | -5.27443 | 48.41779 | 31922 ft | 499 kts | 335° |
| 2026-04-20 07:19 | -5.21052 | 48.39032 | 31931 ft | 500 kts | 335° |
| 2026-04-20 07:19 | -5.14702 | 48.36306 | 31932 ft | 500 kts | 335° |
| 2026-04-20 07:20 | -5.08314 | 48.33561 | 31925 ft | 500 kts | 335° |
| 2026-04-20 07:20 | -5.01917 | 48.30811 | 31922 ft | 500 kts | 335° |
| 2026-04-20 07:21 | -4.95534 | 48.28067 | 31925 ft | 499 kts | 335° |
| 2026-04-20 07:21 | -4.89193 | 48.25347 | 31926 ft | 499 kts | 336° |
| 2026-04-20 07:22 | -4.82806 | 48.22608 | 31922 ft | 499 kts | 336° |
| 2026-04-20 07:22 | -4.76428 | 48.19871 | 31923 ft | 499 kts | 336° |
| 2026-04-20 07:23 | -4.70045 | 48.17130 | 31928 ft | 499 kts | 336° |
| 2026-04-20 07:23 | -4.63701 | 48.14407 | 31926 ft | 499 kts | 336° |
| 2026-04-20 07:24 | -4.57324 | 48.11673 | 31923 ft | 498 kts | 336° |
| 2026-04-20 07:24 | -4.50955 | 48.08941 | 31927 ft | 498 kts | 336° |
| 2026-04-20 07:25 | -4.44578 | 48.06207 | 31929 ft | 499 kts | 336° |
| 2026-04-20 07:25 | -4.38199 | 48.03473 | 31927 ft | 499 kts | 336° |
| 2026-04-20 07:26 | -4.31853 | 48.00752 | 31925 ft | 499 kts | 336° |
| 2026-04-20 07:26 | -4.25563 | 47.98057 | 31920 ft | 499 kts | 336° |
| 2026-04-20 07:27 | -4.19184 | 47.95322 | 31926 ft | 499 kts | 336° |
| 2026-04-20 07:27 | -4.12802 | 47.92585 | 31931 ft | 499 kts | 336° |
| 2026-04-20 07:28 | -4.06471 | 47.89870 | 31921 ft | 499 kts | 336° |
| 2026-04-20 07:28 | -4.00088 | 47.87132 | 31920 ft | 499 kts | 336° |
| 2026-04-20 07:29 | -3.93721 | 47.84402 | 31912 ft | 499 kts | 336° |
| 2026-04-20 07:29 | -3.87343 | 47.81666 | 31908 ft | 498 kts | 336° |
| 2026-04-20 07:30 | -3.80969 | 47.78931 | 31907 ft | 498 kts | 336° |
| 2026-04-20 07:30 | -3.74637 | 47.76216 | 31908 ft | 498 kts | 336° |
| 2026-04-20 07:31 | -3.68260 | 47.73483 | 31910 ft | 498 kts | 336° |
| 2026-04-20 07:31 | -3.61887 | 47.70752 | 31909 ft | 499 kts | 336° |
| 2026-04-20 07:32 | -3.55493 | 47.68012 | 31909 ft | 500 kts | 336° |
| 2026-04-20 07:32 | -3.49140 | 47.65289 | 31907 ft | 500 kts | 336° |
| 2026-04-20 07:33 | -3.42752 | 47.62551 | 31914 ft | 500 kts | 336° |
| 2026-04-20 07:33 | -3.36349 | 47.59808 | 31906 ft | 501 kts | 336° |
| 2026-04-20 07:34 | -3.29937 | 47.57064 | 31906 ft | 501 kts | 336° |
| 2026-04-20 07:34 | -3.23568 | 47.54337 | 31906 ft | 501 kts | 336° |
| 2026-04-20 07:35 | -3.13947 | 47.50216 | 31910 ft | 502 kts | 336° |
| 2026-04-20 07:35 | -3.07533 | 47.47470 | 31909 ft | 502 kts | 336° |
| 2026-04-20 07:36 | -3.01110 | 47.44721 | 31907 ft | 502 kts | 336° |
| 2026-04-20 07:36 | -2.94669 | 47.41967 | 32151 ft | 504 kts | 336° |
| 2026-04-20 07:37 | -2.91500 | 47.40612 | 32486 ft | 501 kts | 336° |
| 2026-04-20 07:37 | -2.88301 | 47.39246 | 32811 ft | 499 kts | 336° |
| 2026-04-20 07:37 | -2.85117 | 47.37885 | 33095 ft | 497 kts | 336° |
| 2026-04-20 07:37 | -2.81939 | 47.36526 | 33309 ft | 497 kts | 336° |
| 2026-04-20 07:38 | -2.78759 | 47.35166 | 33535 ft | 496 kts | 337° |
| 2026-04-20 07:38 | -2.75586 | 47.33807 | 33751 ft | 496 kts | 337° |
| 2026-04-20 07:38 | -2.70316 | 47.31553 | 33873 ft | 496 kts | 337° |
| 2026-04-20 07:39 | -2.62951 | 47.28407 | 33911 ft | 494 kts | 337° |
| 2026-04-20 07:39 | -2.56634 | 47.25708 | 33916 ft | 493 kts | 337° |
| 2026-04-20 07:40 | -2.51400 | 47.23469 | 33915 ft | 492 kts | 337° |
| 2026-04-20 07:40 | -2.45101 | 47.20777 | 33915 ft | 492 kts | 337° |
| 2026-04-20 07:41 | -2.37782 | 47.17648 | 33918 ft | 492 kts | 337° |
| 2026-04-20 07:41 | -2.32504 | 47.15395 | 33916 ft | 493 kts | 337° |
| 2026-04-20 07:42 | -2.26230 | 47.12714 | 33916 ft | 494 kts | 337° |
| 2026-04-20 07:42 | -2.19912 | 47.10013 | 33914 ft | 495 kts | 337° |
| 2026-04-20 07:43 | -2.13573 | 47.07306 | 33910 ft | 496 kts | 337° |
| 2026-04-20 07:43 | -2.07222 | 47.04594 | 33910 ft | 496 kts | 337° |
| 2026-04-20 07:44 | -2.00920 | 47.01905 | 33909 ft | 496 kts | 337° |
| 2026-04-20 07:44 | -1.94677 | 46.99237 | 33906 ft | 497 kts | 337° |
| 2026-04-20 07:45 | -1.88312 | 46.96519 | 33908 ft | 497 kts | 337° |
| 2026-04-20 07:45 | -1.81955 | 46.93804 | 33908 ft | 497 kts | 337° |
| 2026-04-20 07:46 | -1.75629 | 46.91103 | 33908 ft | 498 kts | 337° |
| 2026-04-20 07:46 | -1.69259 | 46.88385 | 33908 ft | 498 kts | 337° |
| 2026-04-20 07:47 | -1.62889 | 46.85666 | 33907 ft | 498 kts | 337° |
| 2026-04-20 07:47 | -1.56523 | 46.82948 | 33903 ft | 498 kts | 337° |
| 2026-04-20 07:48 | -1.50152 | 46.80229 | 33907 ft | 498 kts | 337° |
| 2026-04-20 07:48 | -1.43821 | 46.77527 | 33907 ft | 498 kts | 337° |
| 2026-04-20 07:49 | -1.37438 | 46.74802 | 33911 ft | 499 kts | 337° |
| 2026-04-20 07:49 | -1.31056 | 46.72079 | 33909 ft | 499 kts | 337° |
| 2026-04-20 07:50 | -1.24679 | 46.69358 | 33908 ft | 499 kts | 337° |
| 2026-04-20 07:50 | -1.18297 | 46.66631 | 33906 ft | 499 kts | 337° |
| 2026-04-20 07:51 | -1.11954 | 46.63927 | 33910 ft | 499 kts | 337° |
| 2026-04-20 07:51 | -1.05564 | 46.61206 | 33909 ft | 499 kts | 337° |
| 2026-04-20 07:52 | -0.99181 | 46.58487 | 33908 ft | 499 kts | 337° |
| 2026-04-20 07:52 | -0.92791 | 46.55767 | 33908 ft | 499 kts | 337° |
| 2026-04-20 07:53 | -0.86437 | 46.53061 | 33908 ft | 500 kts | 337° |
| 2026-04-20 07:53 | -0.80041 | 46.50338 | 33908 ft | 500 kts | 337° |
| 2026-04-20 07:54 | -0.73649 | 46.47617 | 33905 ft | 500 kts | 337° |
| 2026-04-20 07:54 | -0.67252 | 46.44890 | 33909 ft | 499 kts | 337° |
| 2026-04-20 07:55 | -0.60865 | 46.42171 | 33907 ft | 500 kts | 337° |
| 2026-04-20 07:55 | -0.54507 | 46.39464 | 33907 ft | 500 kts | 337° |
| 2026-04-20 07:56 | -0.48108 | 46.36738 | 33908 ft | 501 kts | 337° |
| 2026-04-20 07:56 | -0.41696 | 46.34010 | 33905 ft | 501 kts | 337° |
| 2026-04-20 07:57 | -0.35279 | 46.31278 | 33906 ft | 501 kts | 337° |
| 2026-04-20 07:57 | -0.28905 | 46.28562 | 33908 ft | 502 kts | 337° |
| 2026-04-20 07:58 | -0.22475 | 46.25823 | 33903 ft | 503 kts | 337° |
| 2026-04-20 07:58 | -0.16043 | 46.23073 | 33910 ft | 503 kts | 336° |
| 2026-04-20 07:59 | -0.09639 | 46.20266 | 33905 ft | 503 kts | 336° |
| 2026-04-20 07:59 | -0.03236 | 46.17444 | 33907 ft | 503 kts | 336° |
| 2026-04-20 08:00 | 0.03119 | 46.14655 | 33907 ft | 503 kts | 336° |
| 2026-04-20 08:00 | 0.09524 | 46.11849 | 33907 ft | 502 kts | 336° |
| 2026-04-20 08:01 | 0.15924 | 46.09046 | 33909 ft | 502 kts | 336° |
| 2026-04-20 08:01 | 0.22318 | 46.06244 | 33907 ft | 502 kts | 336° |
| 2026-04-20 08:02 | 0.28674 | 46.03450 | 33907 ft | 503 kts | 336° |
| 2026-04-20 08:02 | 0.35083 | 46.00647 | 33906 ft | 502 kts | 336° |
| 2026-04-20 08:03 | 0.41382 | 45.97892 | 33908 ft | 502 kts | 336° |
| 2026-04-20 08:03 | 0.47779 | 45.95086 | 33906 ft | 502 kts | 336° |
| 2026-04-20 08:04 | 0.54130 | 45.92301 | 33911 ft | 502 kts | 336° |
| 2026-04-20 08:04 | 0.60537 | 45.89520 | 33904 ft | 502 kts | 337° |
| 2026-04-20 08:05 | 0.66952 | 45.86774 | 33905 ft | 502 kts | 337° |
| 2026-04-20 08:05 | 0.73374 | 45.84026 | 33910 ft | 502 kts | 337° |
| 2026-04-20 08:06 | 0.79749 | 45.81289 | 33910 ft | 502 kts | 337° |
| 2026-04-20 08:06 | 0.86169 | 45.78532 | 33910 ft | 502 kts | 337° |
| 2026-04-20 08:07 | 0.92590 | 45.75772 | 33908 ft | 502 kts | 338° |
| 2026-04-20 08:07 | 0.99009 | 45.73013 | 33910 ft | 502 kts | 338° |
| 2026-04-20 08:08 | 1.05427 | 45.70255 | 33905 ft | 503 kts | 338° |
| 2026-04-20 08:08 | 1.11810 | 45.67513 | 33908 ft | 503 kts | 338° |
| 2026-04-20 08:09 | 1.18232 | 45.64756 | 33908 ft | 503 kts | 338° |
| 2026-04-20 08:09 | 1.24657 | 45.61993 | 33908 ft | 503 kts | 338° |
| 2026-04-20 08:10 | 1.31081 | 45.59232 | 33906 ft | 503 kts | 338° |
| 2026-04-20 08:10 | 1.37464 | 45.56490 | 33909 ft | 502 kts | 338° |
| 2026-04-20 08:11 | 1.43879 | 45.53732 | 33907 ft | 502 kts | 338° |
| 2026-04-20 08:11 | 1.50304 | 45.50971 | 33916 ft | 502 kts | 338° |
| 2026-04-20 08:12 | 1.56721 | 45.48212 | 33918 ft | 502 kts | 338° |
| 2026-04-20 08:12 | 1.63101 | 45.45468 | 33920 ft | 502 kts | 338° |
| 2026-04-20 08:13 | 1.69524 | 45.42708 | 33917 ft | 503 kts | 338° |
| 2026-04-20 08:13 | 1.75953 | 45.39944 | 33918 ft | 503 kts | 338° |
| 2026-04-20 08:14 | 1.82381 | 45.37179 | 33917 ft | 503 kts | 338° |
| 2026-04-20 08:14 | 1.88770 | 45.34433 | 33916 ft | 503 kts | 338° |
| 2026-04-20 08:15 | 1.95072 | 45.31722 | 33917 ft | 503 kts | 338° |
| 2026-04-20 08:15 | 2.01421 | 45.28990 | 33917 ft | 503 kts | 338° |
| 2026-04-20 08:16 | 2.07829 | 45.26173 | 33915 ft | 503 kts | 337° |
| 2026-04-20 08:16 | 2.14223 | 45.23326 | 33917 ft | 503 kts | 337° |
| 2026-04-20 08:17 | 2.20623 | 45.20480 | 33919 ft | 503 kts | 338° |
| 2026-04-20 08:17 | 2.26984 | 45.17660 | 33916 ft | 503 kts | 338° |
| 2026-04-20 08:18 | 2.33387 | 45.14827 | 33916 ft | 503 kts | 338° |
| 2026-04-20 08:18 | 2.39794 | 45.11986 | 33915 ft | 504 kts | 338° |
| 2026-04-20 08:19 | 2.46199 | 45.09149 | 33915 ft | 504 kts | 338° |
| 2026-04-20 08:19 | 2.52562 | 45.06326 | 33918 ft | 503 kts | 338° |
| 2026-04-20 08:20 | 2.58965 | 45.03488 | 33920 ft | 504 kts | 338° |
| 2026-04-20 08:20 | 2.65374 | 45.00648 | 33917 ft | 504 kts | 338° |
| 2026-04-20 08:21 | 2.71679 | 44.97855 | 33918 ft | 504 kts | 338° |
| 2026-04-20 08:21 | 2.78040 | 44.95033 | 33916 ft | 504 kts | 338° |
| 2026-04-20 08:22 | 2.84456 | 44.92185 | 33917 ft | 504 kts | 338° |
| 2026-04-20 08:22 | 2.90863 | 44.89345 | 33915 ft | 504 kts | 338° |
| 2026-04-20 08:23 | 2.97274 | 44.86502 | 33919 ft | 504 kts | 338° |
| 2026-04-20 08:23 | 3.03635 | 44.83680 | 33916 ft | 504 kts | 338° |
| 2026-04-20 08:24 | 3.10041 | 44.80837 | 33918 ft | 504 kts | 338° |
| 2026-04-20 08:24 | 3.16454 | 44.77989 | 33915 ft | 504 kts | 338° |
| 2026-04-20 08:25 | 3.22867 | 44.75144 | 33915 ft | 504 kts | 338° |
| 2026-04-20 08:25 | 3.29273 | 44.72302 | 33922 ft | 504 kts | 338° |
| 2026-04-20 08:26 | 3.35641 | 44.69474 | 33928 ft | 504 kts | 338° |
| 2026-04-20 08:26 | 3.42046 | 44.66630 | 33926 ft | 504 kts | 338° |
| 2026-04-20 08:27 | 3.48460 | 44.63782 | 33928 ft | 504 kts | 338° |
| 2026-04-20 08:27 | 3.54878 | 44.60932 | 33926 ft | 504 kts | 338° |
| 2026-04-20 08:28 | 3.61247 | 44.58103 | 33926 ft | 505 kts | 338° |
| 2026-04-20 08:28 | 3.67670 | 44.55250 | 33926 ft | 505 kts | 338° |
| 2026-04-20 08:29 | 3.74093 | 44.52394 | 33927 ft | 505 kts | 338° |
| 2026-04-20 08:29 | 3.80526 | 44.49537 | 33935 ft | 505 kts | 338° |
| 2026-04-20 08:30 | 3.86901 | 44.46705 | 33935 ft | 505 kts | 338° |
| 2026-04-20 08:30 | 3.93326 | 44.43847 | 33937 ft | 505 kts | 338° |
| 2026-04-20 08:31 | 3.99750 | 44.40990 | 33936 ft | 505 kts | 338° |
| 2026-04-20 08:31 | 4.06168 | 44.38137 | 33934 ft | 505 kts | 338° |
| 2026-04-20 08:32 | 4.12539 | 44.35303 | 33954 ft | 505 kts | 338° |
| 2026-04-20 08:32 | 4.18957 | 44.32446 | 33935 ft | 505 kts | 338° |
| 2026-04-20 08:33 | 4.28585 | 44.28162 | 33952 ft | 505 kts | 338° |
| 2026-04-20 08:34 | 4.35001 | 44.25309 | 33935 ft | 505 kts | 338° |
| 2026-04-20 08:34 | 4.41378 | 44.22468 | 33954 ft | 505 kts | 338° |
| 2026-04-20 08:35 | 4.47803 | 44.19608 | 33950 ft | 505 kts | 338° |
| 2026-04-20 08:35 | 4.54215 | 44.16754 | 33936 ft | 505 kts | 338° |
| 2026-04-20 08:36 | 4.60594 | 44.13912 | 33954 ft | 505 kts | 338° |
| 2026-04-20 08:36 | 4.67008 | 44.11053 | 33952 ft | 504 kts | 337° |
| 2026-04-20 08:37 | 4.73417 | 44.08198 | 33955 ft | 504 kts | 338° |
| 2026-04-20 08:37 | 4.79828 | 44.05340 | 33953 ft | 504 kts | 337° |
| 2026-04-20 08:38 | 4.86226 | 44.02487 | 33955 ft | 503 kts | 337° |
| 2026-04-20 08:38 | 4.92484 | 43.99696 | 33961 ft | 503 kts | 337° |
| 2026-04-20 08:39 | 4.98856 | 43.96813 | 33960 ft | 502 kts | 337° |
| 2026-04-20 08:39 | 5.05206 | 43.93917 | 33964 ft | 501 kts | 337° |
| 2026-04-20 08:40 | 5.11550 | 43.91028 | 33965 ft | 501 kts | 337° |
| 2026-04-20 08:40 | 5.17856 | 43.88157 | 33967 ft | 500 kts | 336° |
| 2026-04-20 08:41 | 5.24188 | 43.85275 | 33973 ft | 500 kts | 337° |
| 2026-04-20 08:41 | 5.30527 | 43.82392 | 33977 ft | 500 kts | 336° |
| 2026-04-20 08:42 | 5.36855 | 43.79513 | 33974 ft | 500 kts | 336° |
| 2026-04-20 08:42 | 5.43147 | 43.76649 | 33975 ft | 499 kts | 336° |
| 2026-04-20 08:43 | 5.49472 | 43.73770 | 33981 ft | 499 kts | 336° |
| 2026-04-20 08:43 | 5.55796 | 43.70890 | 33979 ft | 499 kts | 336° |
| 2026-04-20 08:44 | 5.62120 | 43.68007 | 33985 ft | 499 kts | 336° |
| 2026-04-20 08:44 | 5.68446 | 43.65125 | 33982 ft | 499 kts | 336° |
| 2026-04-20 08:45 | 5.74737 | 43.62269 | 33990 ft | 499 kts | 336° |
| 2026-04-20 08:45 | 5.81065 | 43.59398 | 33990 ft | 499 kts | 336° |
| 2026-04-20 08:46 | 5.87394 | 43.56524 | 33991 ft | 499 kts | 336° |
| 2026-04-20 08:46 | 5.93726 | 43.53646 | 34002 ft | 499 kts | 336° |
| 2026-04-20 08:47 | 6.00049 | 43.50773 | 34000 ft | 500 kts | 336° |
| 2026-04-20 08:47 | 6.06341 | 43.47916 | 34001 ft | 499 kts | 336° |
| 2026-04-20 08:48 | 6.12663 | 43.45039 | 34005 ft | 499 kts | 336° |
| 2026-04-20 08:48 | 6.18984 | 43.42161 | 34011 ft | 498 kts | 336° |
| 2026-04-20 08:49 | 6.25296 | 43.39291 | 34010 ft | 498 kts | 336° |
| 2026-04-20 08:49 | 6.31562 | 43.36440 | 34012 ft | 497 kts | 336° |
| 2026-04-20 08:50 | 6.37859 | 43.33573 | 34015 ft | 497 kts | 336° |
| 2026-04-20 08:50 | 6.44157 | 43.30705 | 34017 ft | 497 kts | 336° |
| 2026-04-20 08:51 | 6.50452 | 43.27837 | 34024 ft | 497 kts | 336° |
| 2026-04-20 08:51 | 6.56706 | 43.24990 | 34026 ft | 497 kts | 336° |
| 2026-04-20 08:52 | 6.62990 | 43.22125 | 34027 ft | 496 kts | 336° |
| 2026-04-20 08:52 | 6.69283 | 43.19256 | 34028 ft | 496 kts | 336° |
| 2026-04-20 08:53 | 6.75573 | 43.16387 | 34047 ft | 496 kts | 336° |
| 2026-04-20 08:53 | 6.81856 | 43.13522 | 34028 ft | 496 kts | 336° |
| 2026-04-20 08:54 | 6.88099 | 43.10673 | 34037 ft | 496 kts | 336° |
| 2026-04-20 08:54 | 6.94382 | 43.07806 | 34048 ft | 496 kts | 336° |
| 2026-04-20 08:55 | 7.00662 | 43.04945 | 34031 ft | 496 kts | 336° |
| 2026-04-20 08:55 | 7.06941 | 43.02089 | 34050 ft | 496 kts | 336° |
| 2026-04-20 08:56 | 7.13089 | 42.99292 | 34046 ft | 496 kts | 336° |
| 2026-04-20 08:56 | 7.19368 | 42.96433 | 34053 ft | 495 kts | 336° |
| 2026-04-20 08:57 | 7.25642 | 42.93575 | 34056 ft | 495 kts | 336° |
| 2026-04-20 08:57 | 7.31912 | 42.90721 | 34057 ft | 495 kts | 336° |
| 2026-04-20 08:58 | 7.38186 | 42.87861 | 34067 ft | 494 kts | 336° |
| 2026-04-20 08:58 | 7.44403 | 42.85027 | 34063 ft | 494 kts | 336° |
| 2026-04-20 08:59 | 7.50669 | 42.82170 | 34066 ft | 494 kts | 336° |
| 2026-04-20 08:59 | 7.56928 | 42.79316 | 34068 ft | 494 kts | 336° |
| 2026-04-20 09:00 | 7.63183 | 42.76462 | 34073 ft | 493 kts | 336° |
| 2026-04-20 09:00 | 7.69390 | 42.73627 | 34073 ft | 493 kts | 336° |
| 2026-04-20 09:01 | 7.75638 | 42.70773 | 34076 ft | 493 kts | 336° |
| 2026-04-20 09:01 | 7.81886 | 42.67922 | 34083 ft | 493 kts | 336° |
| 2026-04-20 09:02 | 7.88136 | 42.65067 | 34086 ft | 493 kts | 336° |
| 2026-04-20 09:02 | 7.94340 | 42.62231 | 34087 ft | 493 kts | 336° |
| 2026-04-20 09:03 | 8.00583 | 42.59377 | 34092 ft | 493 kts | 336° |
| 2026-04-20 09:03 | 8.06824 | 42.56522 | 34087 ft | 493 kts | 336° |
| 2026-04-20 09:04 | 8.13082 | 42.53660 | 34098 ft | 494 kts | 336° |
| 2026-04-20 09:04 | 8.19336 | 42.50796 | 34102 ft | 494 kts | 336° |
| 2026-04-20 09:05 | 8.25564 | 42.47944 | 34100 ft | 494 kts | 336° |
| 2026-04-20 09:05 | 8.31834 | 42.45077 | 34103 ft | 495 kts | 336° |
| 2026-04-20 09:06 | 8.38105 | 42.42206 | 34102 ft | 495 kts | 336° |
| 2026-04-20 09:06 | 8.44377 | 42.39334 | 34108 ft | 495 kts | 336° |
| 2026-04-20 09:07 | 8.50618 | 42.36488 | 34114 ft | 495 kts | 336° |
| 2026-04-20 09:07 | 8.56898 | 42.33627 | 34110 ft | 495 kts | 336° |
| 2026-04-20 09:08 | 8.63162 | 42.30770 | 34109 ft | 494 kts | 336° |
| 2026-04-20 09:08 | 8.69417 | 42.27912 | 34117 ft | 493 kts | 336° |
| 2026-04-20 09:09 | 8.75629 | 42.25073 | 34121 ft | 493 kts | 336° |
| 2026-04-20 09:09 | 8.81875 | 42.22217 | 34123 ft | 493 kts | 335° |
| 2026-04-20 09:10 | 8.88126 | 42.19360 | 34120 ft | 493 kts | 335° |
| 2026-04-20 09:10 | 8.94362 | 42.16510 | 34118 ft | 492 kts | 335° |
| 2026-04-20 09:11 | 9.00543 | 42.13684 | 34125 ft | 491 kts | 335° |
| 2026-04-20 09:11 | 9.06774 | 42.10832 | 34140 ft | 491 kts | 335° |
| 2026-04-20 09:12 | 9.13001 | 42.07981 | 34151 ft | 491 kts | 335° |
| 2026-04-20 09:12 | 9.19218 | 42.05131 | 34160 ft | 491 kts | 335° |
| 2026-04-20 09:13 | 9.25407 | 42.02296 | 34156 ft | 492 kts | 335° |
| 2026-04-20 09:13 | 9.31540 | 41.99484 | 34155 ft | 492 kts | 335° |
| 2026-04-20 09:14 | 9.37775 | 41.96625 | 34155 ft | 492 kts | 335° |
| 2026-04-20 09:14 | 9.44025 | 41.93755 | 34158 ft | 493 kts | 335° |
| 2026-04-20 09:15 | 9.50230 | 41.90909 | 34163 ft | 493 kts | 335° |
| 2026-04-20 09:15 | 9.56484 | 41.88039 | 34159 ft | 493 kts | 335° |
| 2026-04-20 09:16 | 9.62733 | 41.85167 | 34156 ft | 493 kts | 335° |
| 2026-04-20 09:16 | 9.68974 | 41.82303 | 34157 ft | 492 kts | 335° |
| 2026-04-20 09:17 | 9.75169 | 41.79463 | 34158 ft | 492 kts | 335° |
| 2026-04-20 09:17 | 9.81398 | 41.76604 | 34158 ft | 492 kts | 335° |
| 2026-04-20 09:18 | 9.87628 | 41.73743 | 34159 ft | 492 kts | 335° |
| 2026-04-20 09:18 | 9.93861 | 41.70879 | 34158 ft | 492 kts | 335° |
| 2026-04-20 09:19 | 10.00038 | 41.68041 | 34156 ft | 491 kts | 335° |
| 2026-04-20 09:19 | 10.06267 | 41.65177 | 34160 ft | 491 kts | 335° |
| 2026-04-20 09:20 | 10.12483 | 41.62318 | 34157 ft | 491 kts | 335° |
| 2026-04-20 09:20 | 10.18707 | 41.59454 | 34157 ft | 491 kts | 335° |
| 2026-04-20 09:21 | 10.24884 | 41.56609 | 34154 ft | 491 kts | 335° |
| 2026-04-20 09:21 | 10.31106 | 41.53744 | 34159 ft | 491 kts | 335° |
| 2026-04-20 09:22 | 10.37333 | 41.50875 | 34154 ft | 491 kts | 335° |
| 2026-04-20 09:22 | 10.43558 | 41.48005 | 34153 ft | 492 kts | 335° |
| 2026-04-20 09:23 | 10.49794 | 41.45128 | 34153 ft | 492 kts | 335° |
| 2026-04-20 09:23 | 10.55991 | 41.42267 | 34159 ft | 493 kts | 335° |
| 2026-04-20 09:24 | 10.62271 | 41.39463 | 34158 ft | 493 kts | 339° |
| 2026-04-20 09:24 | 10.68755 | 41.37181 | 34164 ft | 493 kts | 340° |
| 2026-04-20 09:25 | 10.75264 | 41.34954 | 34154 ft | 493 kts | 340° |
| 2026-04-20 09:25 | 10.81717 | 41.32719 | 34157 ft | 494 kts | 340° |
| 2026-04-20 09:26 | 10.88214 | 41.30444 | 34145 ft | 494 kts | 340° |
| 2026-04-20 09:26 | 10.94706 | 41.28165 | 34152 ft | 494 kts | 340° |
| 2026-04-20 09:27 | 11.01193 | 41.25888 | 34144 ft | 493 kts | 340° |
| 2026-04-20 09:27 | 11.07634 | 41.23629 | 34152 ft | 493 kts | 340° |
| 2026-04-20 09:28 | 11.14114 | 41.21353 | 34144 ft | 492 kts | 340° |
| 2026-04-20 09:28 | 11.20593 | 41.19078 | 34148 ft | 492 kts | 340° |
| 2026-04-20 09:29 | 11.27058 | 41.16807 | 34139 ft | 492 kts | 340° |
| 2026-04-20 09:29 | 11.33481 | 41.14549 | 34140 ft | 492 kts | 340° |
| 2026-04-20 09:30 | 11.39951 | 41.12274 | 34140 ft | 492 kts | 340° |
| 2026-04-20 09:30 | 11.46425 | 41.09994 | 34125 ft | 492 kts | 340° |
| 2026-04-20 09:31 | 11.52896 | 41.07716 | 34128 ft | 492 kts | 340° |
| 2026-04-20 09:31 | 11.59369 | 41.05436 | 34117 ft | 492 kts | 340° |
| 2026-04-20 09:32 | 11.65787 | 41.03173 | 34120 ft | 491 kts | 340° |
| 2026-04-20 09:32 | 11.72242 | 41.00897 | 34121 ft | 491 kts | 340° |
| 2026-04-20 09:33 | 11.78442 | 40.98284 | 34118 ft | 489 kts | 330° |
| 2026-04-20 09:33 | 11.84145 | 40.94510 | 34111 ft | 488 kts | 320° |
| 2026-04-20 09:34 | 11.89297 | 40.90063 | 34119 ft | 489 kts | 319° |
| 2026-04-20 09:34 | 11.97055 | 40.83274 | 34111 ft | 490 kts | 319° |
| 2026-04-20 09:35 | 12.02247 | 40.78783 | 34119 ft | 490 kts | 319° |
| 2026-04-20 09:35 | 12.07452 | 40.74295 | 34119 ft | 489 kts | 319° |
| 2026-04-20 09:36 | 12.12616 | 40.69837 | 34119 ft | 489 kts | 319° |
| 2026-04-20 09:36 | 12.17806 | 40.65355 | 34118 ft | 488 kts | 319° |
| 2026-04-20 09:37 | 12.22984 | 40.60881 | 34121 ft | 488 kts | 319° |
| 2026-04-20 09:37 | 12.28163 | 40.56402 | 34120 ft | 487 kts | 319° |
| 2026-04-20 09:38 | 12.33302 | 40.51954 | 34122 ft | 487 kts | 319° |
| 2026-04-20 09:38 | 12.38479 | 40.47471 | 34098 ft | 488 kts | 319° |
| 2026-04-20 09:39 | 12.43669 | 40.42976 | 34088 ft | 489 kts | 319° |
| 2026-04-20 09:39 | 12.48821 | 40.38509 | 34098 ft | 489 kts | 319° |
| 2026-04-20 09:40 | 12.54005 | 40.34006 | 34096 ft | 488 kts | 319° |
| 2026-04-20 09:40 | 12.59182 | 40.29504 | 34090 ft | 488 kts | 319° |
| 2026-04-20 09:41 | 12.64360 | 40.25001 | 34097 ft | 488 kts | 319° |
| 2026-04-20 09:41 | 12.69524 | 40.20505 | 34087 ft | 487 kts | 319° |
| 2026-04-20 09:42 | 12.74657 | 40.16035 | 34068 ft | 488 kts | 319° |
| 2026-04-20 09:42 | 12.79823 | 40.11534 | 34054 ft | 487 kts | 319° |
| 2026-04-20 09:43 | 12.84987 | 40.07034 | 34049 ft | 486 kts | 319° |
| 2026-04-20 09:43 | 12.90131 | 40.02546 | 34050 ft | 485 kts | 319° |
| 2026-04-20 09:44 | 12.95151 | 39.98162 | 34029 ft | 485 kts | 319° |
| 2026-04-20 09:44 | 13.00288 | 39.93678 | 34028 ft | 486 kts | 319° |
| 2026-04-20 09:45 | 13.05429 | 39.89186 | 34040 ft | 486 kts | 319° |
| 2026-04-20 09:45 | 13.10581 | 39.84684 | 34029 ft | 487 kts | 319° |
| 2026-04-20 09:46 | 13.15699 | 39.80206 | 34033 ft | 487 kts | 319° |
| 2026-04-20 09:46 | 13.20848 | 39.75698 | 34033 ft | 486 kts | 319° |
| 2026-04-20 09:47 | 13.25988 | 39.71196 | 34031 ft | 485 kts | 319° |
| 2026-04-20 09:47 | 13.31119 | 39.66702 | 34024 ft | 484 kts | 319° |
| 2026-04-20 09:48 | 13.36238 | 39.62211 | 34024 ft | 484 kts | 319° |
| 2026-04-20 09:48 | 13.41325 | 39.57747 | 34026 ft | 484 kts | 318° |
| 2026-04-20 09:49 | 13.46438 | 39.53254 | 34020 ft | 483 kts | 317° |
| 2026-04-20 09:49 | 13.51151 | 39.48363 | 34027 ft | 482 kts | 312° |
| 2026-04-20 09:50 | 13.55648 | 39.43312 | 34016 ft | 482 kts | 311° |
| 2026-04-20 09:50 | 13.60182 | 39.38239 | 34017 ft | 482 kts | 312° |
| 2026-04-20 09:51 | 13.64733 | 39.33182 | 34016 ft | 482 kts | 312° |
| 2026-04-20 09:51 | 13.69295 | 39.28123 | 34018 ft | 483 kts | 312° |
| 2026-04-20 09:52 | 13.73864 | 39.23050 | 34016 ft | 484 kts | 312° |
| 2026-04-20 09:52 | 13.78408 | 39.18002 | 34011 ft | 484 kts | 312° |
| 2026-04-20 09:53 | 13.82988 | 39.12909 | 34011 ft | 485 kts | 312° |
| 2026-04-20 09:53 | 13.87566 | 39.07816 | 34012 ft | 485 kts | 311° |
| 2026-04-20 09:54 | 13.92152 | 39.02709 | 34010 ft | 486 kts | 311° |
| 2026-04-20 09:54 | 13.96638 | 38.97711 | 34012 ft | 486 kts | 311° |
| 2026-04-20 09:55 | 14.01296 | 38.92675 | 33999 ft | 486 kts | 320° |
| 2026-04-20 09:55 | 14.04156 | 38.90820 | 34014 ft | 489 kts | 334° |
| 2026-04-20 09:55 | 14.07384 | 38.89694 | 34016 ft | 493 kts | 346° |
| 2026-04-20 09:56 | 14.10804 | 38.89330 | 34013 ft | 496 kts | 358° |
| 2026-04-20 09:56 | 14.14260 | 38.89393 | 34010 ft | 498 kts | 359° |
| 2026-04-20 09:56 | 14.21153 | 38.89623 | 34010 ft | 500 kts | 359° |
| 2026-04-20 09:57 | 14.28115 | 38.89769 | 33996 ft | 501 kts | 358° |
| 2026-04-20 09:57 | 14.35090 | 38.89846 | 33994 ft | 501 kts | 358° |
| 2026-04-20 09:58 | 14.42060 | 38.89913 | 33988 ft | 501 kts | 358° |
| 2026-04-20 09:58 | 14.48976 | 38.89989 | 33991 ft | 500 kts | 358° |
| 2026-04-20 09:59 | 14.55915 | 38.90030 | 33979 ft | 498 kts | 357° |
| 2026-04-20 09:59 | 14.62835 | 38.90027 | 33979 ft | 497 kts | 357° |
| 2026-04-20 10:00 | 14.69753 | 38.90027 | 33982 ft | 496 kts | 357° |
| 2026-04-20 10:00 | 14.76651 | 38.90034 | 33974 ft | 496 kts | 357° |
| 2026-04-20 10:01 | 14.83507 | 38.90040 | 33975 ft | 496 kts | 357° |
| 2026-04-20 10:01 | 14.90414 | 38.90052 | 33968 ft | 496 kts | 357° |
| 2026-04-20 10:02 | 14.97324 | 38.90061 | 33970 ft | 496 kts | 357° |
| 2026-04-20 10:02 | 15.04221 | 38.90069 | 33963 ft | 497 kts | 356° |
| 2026-04-20 10:03 | 15.11098 | 38.90078 | 33933 ft | 497 kts | 356° |
| 2026-04-20 10:03 | 15.18010 | 38.90087 | 33933 ft | 497 kts | 356° |
| 2026-04-20 10:04 | 15.24929 | 38.90095 | 33929 ft | 497 kts | 356° |
| 2026-04-20 10:04 | 15.31837 | 38.90142 | 33923 ft | 497 kts | 358° |
| 2026-04-20 10:05 | 15.38709 | 38.90396 | 33929 ft | 497 kts | 359° |
| 2026-04-20 10:05 | 15.45613 | 38.90692 | 33921 ft | 497 kts | 358° |
| 2026-04-20 10:06 | 15.52527 | 38.90960 | 33917 ft | 497 kts | 358° |
| 2026-04-20 10:06 | 15.59437 | 38.91208 | 33919 ft | 497 kts | 358° |
| 2026-04-20 10:07 | 15.66308 | 38.91452 | 33909 ft | 497 kts | 358° |
| 2026-04-20 10:07 | 15.73209 | 38.91698 | 33911 ft | 496 kts | 358° |
| 2026-04-20 10:08 | 15.80113 | 38.91944 | 33915 ft | 496 kts | 358° |
| 2026-04-20 10:08 | 15.87020 | 38.92192 | 33910 ft | 497 kts | 358° |
| 2026-04-20 10:09 | 15.93883 | 38.92434 | 33911 ft | 497 kts | 358° |
| 2026-04-20 10:09 | 16.00783 | 38.92682 | 33913 ft | 497 kts | 358° |
| 2026-04-20 10:10 | 16.07686 | 38.92929 | 33901 ft | 497 kts | 357° |
| 2026-04-20 10:10 | 16.14594 | 38.93176 | 33904 ft | 496 kts | 357° |
| 2026-04-20 10:11 | 16.21498 | 38.93423 | 33897 ft | 496 kts | 357° |
| 2026-04-20 10:11 | 16.28353 | 38.93671 | 33897 ft | 496 kts | 357° |
| 2026-04-20 10:12 | 16.35266 | 38.93919 | 33901 ft | 496 kts | 357° |
| 2026-04-20 10:12 | 16.42167 | 38.94167 | 33897 ft | 496 kts | 357° |
| 2026-04-20 10:13 | 16.49068 | 38.94415 | 33892 ft | 497 kts | 357° |
| 2026-04-20 10:13 | 16.55931 | 38.94662 | 33893 ft | 497 kts | 357° |
| 2026-04-20 10:14 | 16.62840 | 38.94910 | 33884 ft | 497 kts | 357° |
| 2026-04-20 10:14 | 16.69747 | 38.95159 | 33884 ft | 496 kts | 357° |
| 2026-04-20 10:15 | 16.76646 | 38.95410 | 33885 ft | 496 kts | 357° |
| 2026-04-20 10:15 | 16.83509 | 38.95657 | 33892 ft | 497 kts | 357° |
| 2026-04-20 10:16 | 16.90412 | 38.95904 | 33885 ft | 497 kts | 357° |
| 2026-04-20 10:16 | 16.97319 | 38.96153 | 33912 ft | 496 kts | 357° |
| 2026-04-20 10:17 | 17.04022 | 38.96397 | 34006 ft | 494 kts | 357° |
| 2026-04-20 10:17 | 17.10953 | 38.96648 | 34017 ft | 496 kts | 357° |
| 2026-04-20 10:18 | 17.17884 | 38.96899 | 34019 ft | 497 kts | 356° |
| 2026-04-20 10:18 | 17.24789 | 38.97148 | 34023 ft | 498 kts | 356° |
| 2026-04-20 10:19 | 17.31663 | 38.97399 | 34022 ft | 498 kts | 356° |
| 2026-04-20 10:19 | 17.37521 | 38.97612 | 34020 ft | 498 kts | 356° |
| 2026-04-20 10:20 | 17.44437 | 38.97863 | 34016 ft | 498 kts | 356° |
| 2026-04-20 10:20 | 17.51387 | 38.98115 | 34018 ft | 498 kts | 356° |
| 2026-04-20 10:21 | 17.58257 | 38.98365 | 34019 ft | 498 kts | 356° |
| 2026-04-20 10:21 | 17.65155 | 38.98616 | 34020 ft | 498 kts | 356° |
| 2026-04-20 10:22 | 17.72173 | 38.98871 | 34015 ft | 497 kts | 356° |
| 2026-04-20 10:22 | 17.79084 | 38.99123 | 34021 ft | 497 kts | 356° |
| 2026-04-20 10:23 | 17.86020 | 38.99375 | 33968 ft | 498 kts | 356° |
| 2026-04-20 10:23 | 17.92898 | 38.99626 | 33967 ft | 498 kts | 356° |
| 2026-04-20 10:24 | 17.99871 | 38.99881 | 33961 ft | 497 kts | 356° |
| 2026-04-20 10:24 | 18.06798 | 39.00134 | 33960 ft | 497 kts | 356° |
| 2026-04-20 10:25 | 18.13732 | 39.00388 | 33968 ft | 497 kts | 356° |
| 2026-04-20 10:25 | 18.20707 | 39.00675 | 33980 ft | 499 kts | 356° |
| 2026-04-20 10:26 | 18.27714 | 39.01071 | 34354 ft | 500 kts | 357° |
| 2026-04-20 10:26 | 18.31060 | 39.01270 | 34688 ft | 498 kts | 357° |
| 2026-04-20 10:26 | 18.34601 | 39.01476 | 35061 ft | 495 kts | 357° |
| 2026-04-20 10:27 | 18.37968 | 39.01668 | 35390 ft | 493 kts | 356° |
| 2026-04-20 10:27 | 18.41442 | 39.01862 | 35680 ft | 492 kts | 356° |
| 2026-04-20 10:27 | 18.44841 | 39.02050 | 35954 ft | 490 kts | 356° |
| 2026-04-20 10:27 | 18.48230 | 39.02236 | 36045 ft | 492 kts | 356° |
| 2026-04-20 10:28 | 18.55103 | 39.02612 | 36108 ft | 490 kts | 356° |
| 2026-04-20 10:28 | 18.61962 | 39.02992 | 36109 ft | 487 kts | 356° |
| 2026-04-20 10:29 | 18.68727 | 39.03366 | 36028 ft | 487 kts | 356° |
| 2026-04-20 10:29 | 18.75556 | 39.03743 | 35977 ft | 486 kts | 356° |
| 2026-04-20 10:30 | 18.82198 | 39.04111 | 35969 ft | 486 kts | 356° |
| 2026-04-20 10:30 | 18.89015 | 39.04489 | 35965 ft | 487 kts | 356° |
| 2026-04-20 10:31 | 18.95823 | 39.04867 | 35961 ft | 488 kts | 356° |
| 2026-04-20 10:31 | 19.02516 | 39.05239 | 35957 ft | 489 kts | 356° |
| 2026-04-20 10:32 | 19.09307 | 39.05555 | 35948 ft | 488 kts | 352° |
| 2026-04-20 10:32 | 19.15976 | 39.04846 | 35950 ft | 479 kts | 342° |
| 2026-04-20 10:33 | 19.22442 | 39.03101 | 35942 ft | 475 kts | 338° |
| 2026-04-20 10:33 | 19.28857 | 39.01214 | 35938 ft | 476 kts | 338° |
| 2026-04-20 10:34 | 19.35245 | 38.99358 | 35927 ft | 476 kts | 338° |
| 2026-04-20 10:35 | 19.44830 | 38.96616 | 35915 ft | 477 kts | 338° |
| 2026-04-20 10:35 | 19.51301 | 38.94770 | 35902 ft | 476 kts | 338° |
| 2026-04-20 10:36 | 19.57653 | 38.92958 | 35903 ft | 476 kts | 338° |
| 2026-04-20 10:36 | 19.64048 | 38.91129 | 35894 ft | 476 kts | 338° |
| 2026-04-20 10:37 | 19.70433 | 38.89300 | 35887 ft | 475 kts | 338° |
| 2026-04-20 10:37 | 19.76794 | 38.87477 | 35881 ft | 475 kts | 338° |
| 2026-04-20 10:38 | 19.83181 | 38.85646 | 35891 ft | 475 kts | 338° |
| 2026-04-20 10:38 | 19.89674 | 38.83781 | 35872 ft | 475 kts | 338° |
| 2026-04-20 10:39 | 19.96015 | 38.81960 | 35866 ft | 476 kts | 338° |
| 2026-04-20 10:39 | 20.02389 | 38.80127 | 35857 ft | 476 kts | 338° |
| 2026-04-20 10:40 | 20.08696 | 38.78312 | 35825 ft | 477 kts | 338° |
| 2026-04-20 10:40 | 20.15174 | 38.76447 | 35824 ft | 477 kts | 338° |
| 2026-04-20 10:41 | 20.20553 | 38.74897 | 35814 ft | 477 kts | 338° |
| 2026-04-20 10:41 | 20.28051 | 38.72735 | 35813 ft | 476 kts | 338° |
| 2026-04-20 10:42 | 20.34391 | 38.70904 | 35814 ft | 475 kts | 337° |
| 2026-04-20 10:42 | 20.40821 | 38.69046 | 35846 ft | 474 kts | 337° |
| 2026-04-20 10:43 | 20.46105 | 38.67518 | 35857 ft | 474 kts | 337° |
| 2026-04-20 10:43 | 20.52466 | 38.65676 | 35848 ft | 475 kts | 337° |
| 2026-04-20 10:44 | 20.58805 | 38.63839 | 35840 ft | 475 kts | 337° |
| 2026-04-20 10:44 | 20.65169 | 38.61995 | 35845 ft | 475 kts | 337° |
| 2026-04-20 10:45 | 20.71599 | 38.60128 | 35836 ft | 475 kts | 337° |
| 2026-04-20 10:45 | 20.78001 | 38.58268 | 35830 ft | 475 kts | 337° |
| 2026-04-20 10:46 | 20.84574 | 38.57137 | 35831 ft | 495 kts | 356° |
| 2026-04-20 10:46 | 20.88045 | 38.57791 | 35824 ft | 510 kts | 9° |
| 2026-04-20 10:46 | 20.91337 | 38.59306 | 35819 ft | 526 kts | 23° |
| 2026-04-20 10:47 | 20.97563 | 38.63483 | 35836 ft | 530 kts | 26° |
| 2026-04-20 10:47 | 21.03653 | 38.67657 | 35833 ft | 531 kts | 25° |
| 2026-04-20 10:48 | 21.10029 | 38.71907 | 35817 ft | 532 kts | 24° |
| 2026-04-20 10:48 | 21.16386 | 38.76081 | 35816 ft | 533 kts | 24° |
| 2026-04-20 10:49 | 21.22720 | 38.80239 | 35816 ft | 533 kts | 24° |
| 2026-04-20 10:49 | 21.28991 | 38.84370 | 35813 ft | 532 kts | 24° |
| 2026-04-20 10:50 | 21.35272 | 38.88515 | 35814 ft | 532 kts | 24° |
| 2026-04-20 10:50 | 21.41594 | 38.92690 | 35805 ft | 531 kts | 24° |
| 2026-04-20 10:51 | 21.47853 | 38.96827 | 35804 ft | 531 kts | 24° |
| 2026-04-20 10:51 | 21.54171 | 39.01009 | 35807 ft | 530 kts | 24° |
| 2026-04-20 10:52 | 21.60359 | 39.05108 | 35804 ft | 530 kts | 24° |
| 2026-04-20 10:52 | 21.66881 | 39.08566 | 35802 ft | 504 kts | 3° |
| 2026-04-20 10:52 | 21.70315 | 39.08875 | 35808 ft | 483 kts | 347° |
| 2026-04-20 10:53 | 21.73573 | 39.08298 | 35816 ft | 469 kts | 336° |
| 2026-04-20 10:53 | 21.79397 | 39.05571 | 35798 ft | 447 kts | 316° |
| 2026-04-20 10:54 | 21.84185 | 39.01423 | 35809 ft | 446 kts | 314° |
| 2026-04-20 10:54 | 21.89028 | 38.97178 | 35809 ft | 448 kts | 314° |
| 2026-04-20 10:55 | 21.93872 | 38.93001 | 35807 ft | 449 kts | 315° |
| 2026-04-20 10:55 | 21.98754 | 38.88830 | 35805 ft | 449 kts | 315° |
| 2026-04-20 10:56 | 22.03622 | 38.84673 | 35809 ft | 447 kts | 314° |
| 2026-04-20 10:56 | 22.08485 | 38.80518 | 35806 ft | 444 kts | 314° |
| 2026-04-20 10:57 | 22.13310 | 38.76387 | 35798 ft | 442 kts | 314° |
| 2026-04-20 10:57 | 22.18086 | 38.72294 | 35802 ft | 440 kts | 314° |
| 2026-04-20 10:58 | 22.22858 | 38.68199 | 35802 ft | 439 kts | 314° |
| 2026-04-20 10:58 | 22.27647 | 38.64086 | 35809 ft | 439 kts | 314° |
| 2026-04-20 10:59 | 22.28413 | 38.63428 | 35808 ft | 439 kts | 314° |